Time;durP1;ratioP1;P1;durP2;ratioP2;P2;SDS_P1;SDS_P2;PMS_P1;PMS_P2;Temp;Humidity;BMP_temperature;BMP_pressure;BME280_temperature;BME280_humidity;BME280_pressure;Samples;Min_cycle;Max_cycle;Signal;HPM_P1;HPM_P2
2022/03/11 00:02:20;;;;;;;;;;;;;;;21.82;42.06;100804.34;7282094;19;151782;-53
2022/03/11 00:04:48;;;;;;;;;;;;;;;21.81;42.11;100803.50;7288373;19;153544;-53
2022/03/11 00:07:15;;;;;;;;;;;;;;;21.82;41.98;100809.97;7280836;19;151687;-53
2022/03/11 00:09:41;;;;;;;;;;;;;;;21.82;42.03;100810.78;7280133;19;152642;-53
2022/03/11 00:12:08;;;;;;;;;;;;;;;21.82;41.74;100802.34;7280828;19;154400;-53
2022/03/11 00:14:36;;;;;;;;;;;;;;;21.82;42.07;100801.53;7280749;19;151508;-54
2022/03/11 00:17:02;;;;;;;;;;;;;;;21.81;41.91;100800.69;7280457;19;152468;-53
2022/03/11 00:19:30;;;;;;;;;;;;;;;21.83;41.96;100794.75;7276855;19;153965;-54
2022/03/11 00:21:56;;;;;;;;;;;;;;;21.83;42.07;100801.22;7282167;19;151897;-54
2022/03/11 00:24:23;;;;;;;;;;;;;;;21.83;42.06;100791.94;7282100;19;152576;-53
2022/03/11 00:26:50;;;;;;;;;;;;;;;21.82;42.01;100788.28;7287994;19;153845;-54
2022/03/11 00:29:17;;;;;;;;;;;;;;;21.83;42.49;100789.97;7278867;19;152589;-53
2022/03/11 00:31:45;;;;;;;;;;;;;;;21.84;42.26;100786.00;7280209;19;155525;-53
2022/03/11 00:34:12;;;;;;;;;;;;;;;21.83;42.33;100778.72;7281190;19;151829;-54
2022/03/11 00:36:40;;;;;;;;;;;;;;;21.83;42.50;100775.06;7280352;19;153285;-54
2022/03/11 00:39:06;;;;;;;;;;;;;;;21.84;42.35;100768.28;7278817;19;153802;-54
2022/03/11 00:41:33;;;;;;;;;;;;;;;21.83;42.67;100758.19;7281543;19;151816;-53
2022/03/11 00:44:00;;;;;;;;;;;;;;;21.83;42.30;100761.00;7281227;19;152633;-54
2022/03/11 00:46:27;;;;;;;;;;;;;;;21.83;42.19;100764.66;7278677;19;153006;-54
2022/03/11 00:48:53;;;;;;;;;;;;;;;21.82;42.60;100759.34;7288550;19;151875;-54
2022/03/11 00:51:20;;;;;;;;;;;;;;;21.81;42.19;100761.31;7279305;19;153440;-54
2022/03/11 00:53:47;;;;;;;;;;;;;;;21.80;42.57;100758.84;7280171;19;151856;-54
2022/03/11 00:56:13;;;;;;;;;;;;;;;21.81;42.42;100752.03;7279164;19;152769;-53
2022/03/11 00:58:40;;;;;;;;;;;;;;;21.80;42.59;100744.78;7276087;19;152647;-53
2022/03/11 01:01:07;;;;;;;;;;;;;;;21.79;42.75;100738.31;7277972;19;152385;-54
2022/03/11 01:03:34;;;;;;;;;;;;;;;21.78;42.97;100731.03;7280324;19;153313;-53
2022/03/11 01:06:00;;;;;;;;;;;;;;;21.77;42.41;100731.34;7278957;19;153285;-53
2022/03/11 01:08:27;;;;;;;;;;;;;;;21.76;42.61;100727.69;7279622;19;152099;-53
2022/03/11 01:10:54;;;;;;;;;;;;;;;21.74;42.58;100725.22;7283161;19;152726;-53
2022/03/11 01:13:20;;;;;;;;;;;;;;;21.74;42.91;100710.31;7280735;19;151495;-53
2022/03/11 01:15:47;;;;;;;;;;;;;;;21.72;42.56;100716.25;7281331;19;153413;-53
2022/03/11 01:18:14;;;;;;;;;;;;;;;21.72;42.46;100715.44;7277082;19;153494;-54
2022/03/11 01:20:41;;;;;;;;;;;;;;;21.69;42.89;100716.91;7280451;19;151530;-54
2022/03/11 01:23:07;;;;;;;;;;;;;;;21.68;43.25;100720.03;7280109;19;153370;-53
2022/03/11 01:25:34;;;;;;;;;;;;;;;21.67;42.86;100724.84;7276436;19;153253;-53
2022/03/11 01:28:01;;;;;;;;;;;;;;;21.65;42.93;100706.63;7279964;19;151798;-53
2022/03/11 01:30:27;;;;;;;;;;;;;;;21.64;43.32;100703.00;7277999;19;153358;-54
2022/03/11 01:32:54;;;;;;;;;;;;;;;21.64;43.65;100702.16;7284562;19;151803;-53
2022/03/11 01:35:27;;;;;;;;;;;;;;;21.62;43.39;100694.03;7279983;19;152837;-54
2022/03/11 01:37:54;;;;;;;;;;;;;;;21.60;43.99;100699.16;7276910;19;153928;-53
2022/03/11 01:40:20;;;;;;;;;;;;;;;21.60;44.07;100698.34;7276281;19;152326;-53
2022/03/11 01:42:47;;;;;;;;;;;;;;;21.58;44.13;100695.84;7279192;19;152940;-53
2022/03/11 01:45:14;;;;;;;;;;;;;;;21.57;43.59;100688.56;7276528;19;153361;-53
2022/03/11 01:47:41;;;;;;;;;;;;;;;21.58;44.03;100695.84;7277851;19;152094;-53
2022/03/11 01:50:07;;;;;;;;;;;;;;;21.56;44.70;100691.69;7279693;19;153461;-53
2022/03/11 01:52:36;;;;;;;;;;;;;;;21.55;44.53;100685.25;7283317;19;153328;-53
2022/03/11 01:55:03;;;;;;;;;;;;;;;21.53;44.69;100678.28;7279227;19;153252;-54
2022/03/11 01:57:33;;;;;;;;;;;;;;;21.53;44.62;100679.09;7277195;19;153119;-54
2022/03/11 02:00:00;;;;;;;;;;;;;;;21.51;44.75;100675.78;7276471;19;151952;-54
2022/03/11 02:02:26;;;;;;;;;;;;;;;21.51;44.70;100669.34;7278785;19;153305;-53
2022/03/11 02:04:53;;;;;;;;;;;;;;;21.50;44.68;100662.06;7278052;19;153488;-54
2022/03/11 02:07:20;;;;;;;;;;;;;;;21.48;44.21;100650.31;7275048;19;151569;-54
2022/03/11 02:09:47;;;;;;;;;;;;;;;21.47;44.41;100643.88;7276387;19;152932;-53
2022/03/11 02:12:26;;;;;;;;;;;;;;;21.46;44.54;100645.00;7277294;19;154356;-53
2022/03/11 02:14:53;;;;;;;;;;;;;;;21.46;44.66;100635.75;7281322;19;152253;-54
2022/03/11 02:17:20;;;;;;;;;;;;;;;21.44;44.64;100636.06;7276683;19;153209;-53
2022/03/11 02:19:47;;;;;;;;;;;;;;;21.43;44.47;100623.19;7276050;19;151943;-54
2022/03/11 02:22:15;;;;;;;;;;;;;;;21.42;44.59;100632.75;7278260;19;152715;-54
2022/03/11 02:24:42;;;;;;;;;;;;;;;21.41;44.67;100628.28;7273475;19;153921;-53
2022/03/11 02:27:09;;;;;;;;;;;;;;;21.41;44.54;100624.63;7276850;19;151781;-53
2022/03/11 02:29:36;;;;;;;;;;;;;;;21.42;44.21;100620.69;7277865;19;153054;-53
2022/03/11 02:32:03;;;;;;;;;;;;;;;21.39;44.49;100618.53;7277210;19;153254;-54
2022/03/11 02:34:30;;;;;;;;;;;;;;;21.38;44.45;100622.47;7277971;19;152081;-54
2022/03/11 02:36:57;;;;;;;;;;;;;;;21.35;44.22;100615.50;7284051;19;152610;-53
2022/03/11 02:39:23;;;;;;;;;;;;;;;21.35;44.37;100615.50;7273068;19;152300;-53
2022/03/11 02:41:51;;;;;;;;;;;;;;;21.34;44.17;100605.44;7280534;19;153292;-53
2022/03/11 02:44:17;;;;;;;;;;;;;;;21.30;44.54;100602.41;7282174;19;153995;-53
2022/03/11 02:46:44;;;;;;;;;;;;;;;21.32;44.29;100596.50;7284624;19;151991;-54
2022/03/11 02:49:11;;;;;;;;;;;;;;;21.28;44.55;100587.03;7284360;19;153610;-53
2022/03/11 02:51:37;;;;;;;;;;;;;;;21.29;44.03;100585.91;7283249;19;153978;-53
2022/03/11 02:54:04;;;;;;;;;;;;;;;21.27;44.15;100580.59;7284950;19;151709;-54
2022/03/11 02:56:31;;;;;;;;;;;;;;;21.28;44.14;100581.44;7284747;19;152557;-53
2022/03/11 02:58:58;;;;;;;;;;;;;;;21.26;44.40;100575.28;7288781;19;153980;-53
2022/03/11 03:01:24;;;;;;;;;;;;;;;21.24;44.11;100572.00;7282908;19;155827;-53
2022/03/11 03:03:51;;;;;;;;;;;;;;;21.23;44.48;100568.34;7282765;19;153969;-53
2022/03/11 03:06:18;;;;;;;;;;;;;;;21.23;44.05;100562.72;7282780;19;152116;-53
2022/03/11 03:08:45;;;;;;;;;;;;;;;21.23;44.18;100554.28;7282229;19;153709;-53
2022/03/11 03:11:11;;;;;;;;;;;;;;;21.22;44.30;100546.19;7282315;19;154023;-53
2022/03/11 03:13:38;;;;;;;;;;;;;;;21.19;43.99;100546.84;7282764;19;151714;-53
2022/03/11 03:16:05;;;;;;;;;;;;;;;21.19;44.04;100539.25;7284223;19;152667;-53
2022/03/11 03:18:32;;;;;;;;;;;;;;;21.18;44.54;100543.19;7279932;19;154128;-53
2022/03/11 03:20:59;;;;;;;;;;;;;;;21.15;44.19;100534.59;7291416;19;151523;-53
2022/03/11 03:23:26;;;;;;;;;;;;;;;21.13;44.17;100539.69;7282631;19;153764;-53
2022/03/11 03:25:53;;;;;;;;;;;;;;;21.13;44.62;100534.06;7283060;19;152035;-53
2022/03/11 03:28:20;;;;;;;;;;;;;;;21.14;44.63;100535.72;7281648;19;152685;-53
2022/03/11 03:30:47;;;;;;;;;;;;;;;21.13;44.87;100531.25;7281839;19;154293;-53
2022/03/11 03:33:14;;;;;;;;;;;;;;;21.12;44.80;100535.22;7283467;19;151584;-54
2022/03/11 03:35:41;;;;;;;;;;;;;;;21.08;44.65;100526.56;7282864;19;152638;-53
2022/03/11 03:38:07;;;;;;;;;;;;;;;21.06;44.84;100526.09;7279770;19;153134;-54
2022/03/11 03:40:34;;;;;;;;;;;;;;;21.06;44.83;100526.09;7290984;19;151599;-53
2022/03/11 03:43:01;;;;;;;;;;;;;;;21.05;44.63;100524.41;7280324;19;154357;-53
2022/03/11 03:45:31;;;;;;;;;;;;;;;21.03;44.68;100518.28;7282908;19;151488;-53
2022/03/11 03:47:59;;;;;;;;;;;;;;;21.05;44.59;100509.53;7282303;19;152655;-53
2022/03/11 03:50:29;;;;;;;;;;;;;;;21.04;44.78;100503.09;7281346;19;152307;-53
2022/03/11 03:52:55;;;;;;;;;;;;;;;21.01;45.04;100492.50;7280537;19;151950;-54
2022/03/11 03:55:22;;;;;;;;;;;;;;;21.01;44.65;100486.91;7282683;19;152687;-53
2022/03/11 03:57:49;;;;;;;;;;;;;;;21.00;44.95;100484.41;7280158;19;151884;-53
2022/03/11 04:00:16;;;;;;;;;;;;;;;20.97;45.04;100482.25;7282896;19;152043;-54
2022/03/11 04:02:49;;;;;;;;;;;;;;;20.96;45.00;100473.00;7287108;19;153312;-54
2022/03/11 04:05:16;;;;;;;;;;;;;;;20.94;44.76;100475.28;7282786;19;151685;-54
2022/03/11 04:07:44;;;;;;;;;;;;;;;20.92;45.17;100476.75;7282749;19;153904;-53
2022/03/11 04:10:11;;;;;;;;;;;;;;;20.91;44.83;100475.94;7276111;19;154141;-53
2022/03/11 04:12:38;;;;;;;;;;;;;;;20.89;44.92;100471.81;7282304;19;151885;-53
2022/03/11 04:15:06;;;;;;;;;;;;;;;20.88;45.23;100481.38;7280990;19;153504;-53
2022/03/11 04:17:32;;;;;;;;;;;;;;;20.87;45.28;100477.72;7279328;19;153367;-54
2022/03/11 04:19:59;;;;;;;;;;;;;;;20.84;45.24;100470.78;7278714;19;151693;-54
2022/03/11 04:22:26;;;;;;;;;;;;;;;20.84;45.13;100472.78;7282104;19;153448;-54
2022/03/11 04:24:53;;;;;;;;;;;;;;;20.82;45.06;100473.09;7287736;19;153305;-53
2022/03/11 04:27:21;;;;;;;;;;;;;;;20.82;45.26;100472.25;7282018;19;153831;-53
2022/03/11 04:29:47;;;;;;;;;;;;;;;20.80;44.98;100475.38;7279271;19;154001;-53
2022/03/11 04:32:14;;;;;;;;;;;;;;;20.79;45.28;100470.09;7282187;19;151900;-53
2022/03/11 04:34:41;;;;;;;;;;;;;;;20.78;45.33;100474.03;7278342;19;153303;-53
2022/03/11 04:37:08;;;;;;;;;;;;;;;20.77;45.33;100469.56;7280697;19;153233;-53
2022/03/11 04:39:34;;;;;;;;;;;;;;;20.73;44.92;100472.22;7279442;19;151557;-54
2022/03/11 04:42:01;;;;;;;;;;;;;;;20.73;45.32;100468.56;7280383;19;152554;-53
2022/03/11 04:44:30;;;;;;;;;;;;;;;20.71;45.35;100463.28;7280617;19;154560;-53
2022/03/11 04:46:57;;;;;;;;;;;;;;;20.69;45.05;100471.19;7288062;19;152087;-54
2022/03/11 04:49:23;;;;;;;;;;;;;;;20.69;45.16;100467.56;7278122;19;153309;-54
2022/03/11 04:51:50;;;;;;;;;;;;;;;20.67;44.89;100461.44;7278473;19;151888;-53
2022/03/11 04:54:17;;;;;;;;;;;;;;;20.67;45.16;100461.44;7280857;19;153835;-53
2022/03/11 04:56:43;;;;;;;;;;;;;;;20.66;45.18;100459.78;7280223;19;153183;-54
2022/03/11 04:59:10;;;;;;;;;;;;;;;20.64;44.72;100462.06;7279483;19;151754;-53
2022/03/11 05:01:37;;;;;;;;;;;;;;;20.62;45.21;100465.22;7281502;19;152813;-53
2022/03/11 05:04:03;;;;;;;;;;;;;;;20.60;44.81;100461.06;7277695;19;155546;-53
2022/03/11 05:06:30;;;;;;;;;;;;;;;20.58;44.87;100458.56;7278857;19;151874;-54
2022/03/11 05:08:57;;;;;;;;;;;;;;;20.59;45.17;100457.41;7283963;19;155464;-53
2022/03/11 05:11:23;;;;;;;;;;;;;;;20.59;44.66;100459.41;7280848;19;151738;-53
2022/03/11 05:13:50;;;;;;;;;;;;;;;20.56;44.85;100446.84;7281595;19;152678;-53
2022/03/11 05:16:17;;;;;;;;;;;;;;;20.57;44.93;100450.47;7279201;19;155798;-53
2022/03/11 05:18:47;;;;;;;;;;;;;;;20.55;45.10;100449.97;7278980;19;151945;-53
2022/03/11 05:21:14;;;;;;;;;;;;;;;20.55;45.38;100447.16;7280231;19;152183;-54
2022/03/11 05:23:40;;;;;;;;;;;;;;;20.52;44.97;100442.19;7278728;19;153892;-53
2022/03/11 05:26:24;;;;;;;;;;;;;;;20.52;45.06;100439.38;7278392;19;151759;-53
2022/03/11 05:28:52;;;;;;;;;;;;;;;20.50;45.01;100436.06;7279895;19;153446;-54
2022/03/11 05:31:19;;;;;;;;;;;;;;;20.49;45.23;100431.63;7285744;19;153240;-53
2022/03/11 05:33:47;;;;;;;;;;;;;;;20.49;44.86;100428.81;7280073;19;153304;-53
2022/03/11 05:36:14;;;;;;;;;;;;;;;20.46;45.39;100421.84;7279055;19;154101;-54
2022/03/11 05:38:40;;;;;;;;;;;;;;;20.46;45.13;100423.81;7278287;19;151757;-53
2022/03/11 05:41:11;;;;;;;;;;;;;;;20.45;45.07;100428.59;7278270;19;153475;-53
2022/03/11 05:43:38;;;;;;;;;;;;;;;20.45;45.03;100424.97;7276151;19;153926;-53
2022/03/11 05:46:05;;;;;;;;;;;;;;;20.43;45.33;100416.88;7279247;19;152037;-53
2022/03/11 05:48:32;;;;;;;;;;;;;;;20.42;45.18;100418.84;7279022;19;153049;-53
2022/03/11 05:51:04;;;;;;;;;;;;;;;20.41;45.43;100405.13;7286698;19;153555;-53
2022/03/11 05:53:31;;;;;;;;;;;;;;;20.40;45.26;100404.31;7276738;19;153389;-53
2022/03/11 05:55:58;;;;;;;;;;;;;;;20.38;45.07;100405.78;7278869;19;153380;-53
2022/03/11 05:58:24;;;;;;;;;;;;;;;20.39;45.49;100407.47;7275834;19;152088;-54
2022/03/11 06:00:51;;;;;;;;;;;;;;;20.37;45.57;100406.94;7279727;19;153258;-53
2022/03/11 06:03:18;;;;;;;;;;;;;;;20.37;45.21;100404.13;7278001;19;153962;-53
2022/03/11 06:05:45;;;;;;;;;;;;;;;20.33;45.34;100401.13;7278725;19;151943;-53
2022/03/11 06:08:12;;;;;;;;;;;;;;;20.32;45.54;100402.28;7278734;19;153315;-52
2022/03/11 06:10:39;;;;;;;;;;;;;;;20.34;45.25;100404.78;7274116;19;153307;-53
2022/03/11 06:13:09;;;;;;;;;;;;;;;20.31;45.75;100396.97;7286496;19;152065;-53
2022/03/11 06:15:41;;;;;;;;;;;;;;;20.31;45.50;100396.97;7277107;19;153587;-53
2022/03/11 06:18:08;;;;;;;;;;;;;;;20.30;45.51;100384.13;7284717;19;151763;-54
2022/03/11 06:20:35;;;;;;;;;;;;;;;20.31;45.58;100388.56;7282181;19;153324;-53
2022/03/11 06:23:03;;;;;;;;;;;;;;;20.35;45.76;100382.00;7285103;19;153994;-53
2022/03/11 06:25:34;;;;;;;;;;;;;;;20.38;45.56;100386.16;7283544;19;151757;-54
2022/03/11 06:28:00;;;;;;;;;;;;;;;20.41;45.94;100386.34;7284259;19;152644;-52
2022/03/11 06:30:29;;;;;;;;;;;;;;;20.48;46.11;100379.44;7283130;19;154371;-54
2022/03/11 06:32:56;;;;;;;;;;;;;;;20.51;46.51;100375.97;7283249;19;151671;-53
2022/03/11 06:35:22;;;;;;;;;;;;;;;20.56;46.09;100370.22;7291156;19;153102;-54
2022/03/11 06:37:52;;;;;;;;;;;;;;;20.59;46.43;100376.03;7283965;19;152183;-53
2022/03/11 06:40:19;;;;;;;;;;;;;;;20.65;46.18;100379.53;7283000;19;153251;-54
2022/03/11 06:42:47;;;;;;;;;;;;;;;20.71;46.95;100372.63;7282877;19;154457;-53
2022/03/11 06:45:14;;;;;;;;;;;;;;;20.75;47.07;100368.84;7284623;19;151470;-53
2022/03/11 06:47:41;;;;;;;;;;;;;;;20.81;47.74;100364.72;7284581;19;152982;-53
2022/03/11 06:50:08;;;;;;;;;;;;;;;20.87;47.69;100354.19;7282972;19;153082;-53
2022/03/11 06:52:35;;;;;;;;;;;;;;;20.94;47.51;100357.31;7283720;19;151762;-54
2022/03/11 06:55:02;;;;;;;;;;;;;;;21.00;47.22;100346.78;7284122;19;153297;-52
2022/03/11 06:57:30;;;;;;;;;;;;;;;21.06;46.93;100339.88;7289926;19;153295;-53
2022/03/11 06:59:57;;;;;;;;;;;;;;;21.11;46.84;100331.28;7280820;19;153311;-53
2022/03/11 07:02:24;;;;;;;;;;;;;;;21.18;46.95;100328.84;7282217;19;154183;-54
2022/03/11 07:04:53;;;;;;;;;;;;;;;21.24;46.73;100336.78;7282074;19;151714;-54
2022/03/11 07:07:19;;;;;;;;;;;;;;;21.30;46.59;100332.66;7281783;19;153277;-54
2022/03/11 07:09:46;;;;;;;;;;;;;;;21.37;46.54;100325.72;7280234;19;153071;-53
2022/03/11 07:12:13;;;;;;;;;;;;;;;21.43;46.88;100330.03;7284283;19;151849;-53
2022/03/11 07:14:41;;;;;;;;;;;;;;;21.47;46.41;100323.44;7284145;19;152604;-53
2022/03/11 07:17:11;;;;;;;;;;;;;;;21.53;46.93;100318.47;7283017;19;153913;-52
2022/03/11 07:19:39;;;;;;;;;;;;;;;21.61;47.08;100320.47;7290361;19;152090;-53
2022/03/11 07:22:06;;;;;;;;;;;;;;;21.62;45.36;100311.66;7282793;19;153316;-54
2022/03/11 07:24:33;;;;;;;;;;;;;;;21.45;41.84;100322.91;7283742;19;151688;-54
2022/03/11 07:27:00;;;;;;;;;;;;;;;21.59;42.25;100315.16;7283436;19;152525;-53
2022/03/11 07:29:26;;;;;;;;;;;;;;;21.67;42.61;100321.91;7280473;19;153382;-53
2022/03/11 07:31:53;;;;;;;;;;;;;;;21.74;42.15;100311.84;7284161;19;151572;-53
2022/03/11 07:34:23;;;;;;;;;;;;;;;21.81;42.09;100318.94;7282449;19;153722;-53
2022/03/11 07:36:50;;;;;;;;;;;;;;;21.88;42.45;100308.03;7282465;19;154068;-58
2022/03/11 07:39:17;;;;;;;;;;;;;;;21.84;41.48;100304.22;7279788;19;151595;-54
2022/03/11 07:41:44;;;;;;;;;;;;;;;21.88;41.64;100305.22;7290414;19;153305;-54
2022/03/11 07:44:11;;;;;;;;;;;;;;;21.89;41.04;100306.88;7283745;19;152050;-54
2022/03/11 07:46:43;;;;;;;;;;;;;;;21.91;41.06;100298.91;7280629;19;152654;-54
2022/03/11 07:49:10;;;;;;;;;;;;;;;21.92;40.99;100292.97;7282424;19;154021;-54
2022/03/11 07:51:37;;;;;;;;;;;;;;;21.93;40.99;100288.19;7281422;19;151515;-54
2022/03/11 07:54:04;;;;;;;;;;;;;;;21.94;40.88;100289.84;7283793;19;152596;-54
2022/03/11 07:56:31;;;;;;;;;;;;;;;21.95;40.89;100283.03;7282132;19;153230;-54
2022/03/11 07:58:58;;;;;;;;;;;;;;;21.95;40.71;100275.44;7282745;19;151948;-54
2022/03/11 08:01:25;;;;;;;;;;;;;;;21.96;40.74;100271.47;7287122;19;152477;-54
2022/03/11 08:03:52;;;;;;;;;;;;;;;21.96;40.44;100277.09;7282165;19;151804;-53
2022/03/11 08:06:19;;;;;;;;;;;;;;;21.96;40.36;100277.09;7283312;19;153871;-54
2022/03/11 08:08:46;;;;;;;;;;;;;;;21.97;40.64;100255.41;7280228;19;154653;-54
2022/03/11 08:11:16;;;;;;;;;;;;;;;21.96;40.05;100265.84;7281511;19;151833;-54
2022/03/11 08:13:42;;;;;;;;;;;;;;;21.96;40.15;100259.38;7280622;19;153010;-54
2022/03/11 08:16:11;;;;;;;;;;;;;;;21.96;40.29;100265.84;7281734;19;153861;-54
2022/03/11 08:18:39;;;;;;;;;;;;;;;21.95;40.27;100254.91;7282596;19;151998;-55
2022/03/11 08:21:05;;;;;;;;;;;;;;;21.93;39.84;100255.28;7280289;19;152474;-54
2022/03/11 08:23:32;;;;;;;;;;;;;;;21.94;39.99;100259.72;7288224;19;153928;-54
2022/03/11 08:25:59;;;;;;;;;;;;;;;21.93;39.70;100248.81;7283092;19;153327;-54
2022/03/11 08:28:26;;;;;;;;;;;;;;;21.92;39.75;100252.75;7280403;19;153143;-54
2022/03/11 08:30:54;;;;;;;;;;;;;;;21.92;39.73;100253.59;7281022;19;152606;-54
2022/03/11 08:33:22;;;;;;;;;;;;;;;21.92;40.08;100258.38;7282295;19;152985;-54
2022/03/11 08:36:09;;;;;;;;;;;;;;;21.97;40.04;100259.06;7280009;19;154054;-53
2022/03/11 08:38:38;;;;;;;;;;;;;;;21.96;40.27;100248.13;7281539;19;151916;-54
2022/03/11 08:41:07;;;;;;;;;;;;;;;21.95;40.33;100252.94;7277726;19;153558;-54
2022/03/11 08:43:34;;;;;;;;;;;;;;;21.91;40.53;100251.91;7280147;19;153963;-53
2022/03/11 08:46:01;;;;;;;;;;;;;;;21.88;40.20;100237.72;7289105;19;151927;-53
2022/03/11 08:48:28;;;;;;;;;;;;;;;21.86;40.13;100228.78;7277655;19;155023;-53
2022/03/11 08:50:55;;;;;;;;;;;;;;;21.86;40.17;100234.41;7279367;19;151837;-54
2022/03/11 08:53:21;;;;;;;;;;;;;;;21.83;40.13;100221.84;7279642;19;152710;-53
2022/03/11 08:55:48;;;;;;;;;;;;;;;21.83;40.24;100221.84;7280084;19;153230;-53
2022/03/11 08:58:15;;;;;;;;;;;;;;;21.81;40.15;100226.97;7280152;19;151825;-53
2022/03/11 09:00:46;;;;;;;;;;;;;;;21.81;39.97;100223.31;7255690;19;153536;-54
2022/03/11 09:03:14;;;;;;;;;;;;;;;21.80;39.86;100210.44;7268511;19;154161;-54
2022/03/11 09:05:40;;;;;;;;;;;;;;;21.77;39.98;100211.91;7279955;19;151788;-53
2022/03/11 09:08:07;;;;;;;;;;;;;;;21.76;40.11;100210.25;7285826;19;153311;-54
2022/03/11 09:10:35;;;;;;;;;;;;;;;21.75;39.68;100205.81;7276911;19;151912;-54
2022/03/11 09:13:03;;;;;;;;;;;;;;;21.72;39.76;100192.41;7279866;19;152478;-53
2022/03/11 09:15:34;;;;;;;;;;;;;;;21.71;39.90;100187.97;7276761;19;153499;-53
2022/03/11 09:18:06;;;;;;;;;;;;;;;21.70;39.69;100187.16;7277608;19;151801;-54
2022/03/11 09:20:34;;;;;;;;;;;;;;;21.69;39.65;100185.50;7279074;19;152942;-54
2022/03/11 09:23:06;;;;;;;;;;;;;;;21.68;40.11;100185.81;7278976;19;153904;-54
2022/03/11 09:25:39;;;;;;;;;;;;;;;21.66;39.63;100188.97;7278860;19;151942;-53
2022/03/11 09:28:06;;;;;;;;;;;;;;;21.65;40.01;100187.31;7277074;19;152721;-53
2022/03/11 09:30:33;;;;;;;;;;;;;;;21.62;39.84;100193.59;7284746;19;153203;-53
2022/03/11 09:33:00;;;;;;;;;;;;;;;21.60;39.69;100184.69;7277306;19;153255;-54
2022/03/11 09:35:28;;;;;;;;;;;;;;;21.58;39.72;100181.38;7274538;19;152847;-54
2022/03/11 09:37:55;;;;;;;;;;;;;;;21.57;40.13;100178.91;7279244;19;151761;-54
2022/03/11 09:40:22;;;;;;;;;;;;;;;21.56;40.08;100166.00;7276918;19;153953;-54
2022/03/11 09:42:50;;;;;;;;;;;;;;;21.53;39.82;100167.47;7272977;19;153393;-54
2022/03/11 09:45:18;;;;;;;;;;;;;;;21.52;40.07;100163.03;7276437;19;151731;-54
2022/03/11 09:47:45;;;;;;;;;;;;;;;21.50;39.73;100158.91;7277944;19;153709;-54
2022/03/11 09:50:12;;;;;;;;;;;;;;;21.49;39.93;100157.25;7277428;19;153436;-55
2022/03/11 09:52:39;;;;;;;;;;;;;;;21.48;40.03;100155.63;7290394;19;152305;-53
2022/03/11 09:55:07;;;;;;;;;;;;;;;21.48;40.04;100155.63;7283622;19;153698;-54
2022/03/11 09:57:34;;;;;;;;;;;;;;;21.45;40.01;100151.47;7285033;19;151875;-54
2022/03/11 10:00:01;;;;;;;;;;;;;;;21.45;39.77;100142.22;7281872;19;153368;-53
2022/03/11 10:02:27;;;;;;;;;;;;;;;21.42;39.79;100140.09;7277908;19;153335;-54
2022/03/11 10:04:57;;;;;;;;;;;;;;;21.40;40.01;100140.41;7282460;19;152122;-54
2022/03/11 10:07:57;;;;;;;;;;;;;;;21.39;39.76;100138.78;7283715;19;153182;-54
2022/03/11 10:10:23;;;;;;;;;;;;;;;21.38;40.12;100125.88;7281608;19;154397;-54
2022/03/11 10:13:08;;;;;;;;;;;;;;;21.35;39.99;100132.16;7288675;19;152399;-54
2022/03/11 10:15:41;;;;;;;;;;;;;;;21.32;39.99;100109.50;7282869;19;153241;-53
2022/03/11 10:18:14;;;;;;;;;;;;;;;21.30;39.79;100107.84;7282554;19;151882;-54
2022/03/11 10:20:41;;;;;;;;;;;;;;;21.28;40.01;100103.75;7283076;19;153503;-54
2022/03/11 10:23:14;;;;;;;;;;;;;;;21.26;39.87;100106.06;7282923;19;153716;-54
2022/03/11 10:25:41;;;;;;;;;;;;;;;21.22;40.12;100105.06;7284006;19;152107;-54
2022/03/11 10:28:09;;;;;;;;;;;;;;;21.21;39.95;100095.81;7283121;19;152685;-53
2022/03/11 10:30:39;;;;;;;;;;;;;;;21.20;40.04;100097.00;7283150;19;154075;-54
2022/03/11 10:33:11;;;;;;;;;;;;;;;21.17;40.12;100094.00;7282310;19;151603;-53
2022/03/11 10:35:43;;;;;;;;;;;;;;;21.14;40.00;100092.69;7289971;19;152533;-53
2022/03/11 10:38:12;;;;;;;;;;;;;;;21.11;40.18;100086.91;7283528;19;151610;-54
2022/03/11 10:40:43;;;;;;;;;;;;;;;21.10;40.00;100093.66;7282283;19;153303;-54
2022/03/11 10:43:16;;;;;;;;;;;;;;;21.07;40.20;100102.78;7283923;19;153535;-54
2022/03/11 10:45:44;;;;;;;;;;;;;;;21.05;40.27;100100.28;7284000;19;151814;-54
2022/03/11 10:48:12;;;;;;;;;;;;;;;21.05;40.12;100079.81;7285194;19;153065;-54
2022/03/11 10:50:40;;;;;;;;;;;;;;;21.04;40.36;100075.34;7284723;19;153596;-54
2022/03/11 10:53:13;;;;;;;;;;;;;;;21.00;40.00;100080.81;7284487;19;151761;-53
2022/03/11 10:55:43;;;;;;;;;;;;;;;20.97;39.93;100084.28;7285410;19;152307;-54
2022/03/11 10:58:16;;;;;;;;;;;;;;;21.06;39.67;100084.25;7289208;19;154068;-53
2022/03/11 11:00:43;;;;;;;;;;;;;;;20.96;39.60;100090.22;7284746;19;152503;-54
2022/03/11 11:03:14;;;;;;;;;;;;;;;20.99;39.62;100087.56;7282569;19;153531;-54
2022/03/11 11:05:41;;;;;;;;;;;;;;;20.99;41.08;100081.13;7281163;19;152038;-54
2022/03/11 11:08:09;;;;;;;;;;;;;;;20.98;42.34;100076.69;7284974;19;153378;-54
2022/03/11 11:10:37;;;;;;;;;;;;;;;20.93;41.68;100076.84;7280387;19;153913;-54
2022/03/11 11:13:09;;;;;;;;;;;;;;;20.89;41.48;100082.31;7284632;19;151631;-53
2022/03/11 11:15:41;;;;;;;;;;;;;;;20.86;41.75;100082.97;7285184;19;152638;-54
2022/03/11 11:18:12;;;;;;;;;;;;;;;20.83;41.05;100064.81;7282277;19;153464;-54
2022/03/11 11:20:44;;;;;;;;;;;;;;;20.80;41.22;100051.41;7292004;19;151832;-54
2022/03/11 11:23:15;;;;;;;;;;;;;;;20.80;41.28;100061.84;7282766;19;153099;-54
2022/03/11 11:25:43;;;;;;;;;;;;;;;20.77;41.38;100060.50;7284234;19;151836;-53
2022/03/11 11:28:18;;;;;;;;;;;;;;;20.75;41.39;100065.66;7284561;19;153736;-54
2022/03/11 11:30:45;;;;;;;;;;;;;;;20.73;41.28;100053.91;7283859;19;153885;-54
2022/03/11 11:33:14;;;;;;;;;;;;;;;20.71;41.46;100032.97;7283976;19;151850;-53
2022/03/11 11:35:41;;;;;;;;;;;;;;;20.70;40.98;100025.69;7284840;19;153408;-53
2022/03/11 11:38:27;;;;;;;;;;;;;;;20.69;41.28;100029.66;7283194;19;153880;-53
2022/03/11 11:40:54;;;;;;;;;;;;;;;20.68;41.17;100040.03;7283146;19;151531;-53
2022/03/11 11:46:11;;;;;;;;;;;;;;;20.65;40.99;100023.03;7284081;19;151932;-54
2022/03/11 11:48:42;;;;;;;;;;;;;;;20.61;41.39;100025.69;7283119;19;152778;-54
2022/03/11 11:51:11;;;;;;;;;;;;;;;20.58;41.38;100023.53;7282177;19;153727;-54
2022/03/11 11:53:42;;;;;;;;;;;;;;;20.59;40.92;100032.78;7281599;19;151952;-53
2022/03/11 11:56:28;;;;;;;;;;;;;;;20.55;41.05;100024.19;7283536;19;153417;-54
2022/03/11 11:58:58;;;;;;;;;;;;;;;20.55;41.31;100026.19;7281762;19;154287;-54
2022/03/11 12:01:42;;;;;;;;;;;;;;;20.54;40.81;100019.75;7283167;19;151821;-53
2022/03/11 12:04:21;;;;;;;;;;;;;;;20.51;41.00;100026.03;7280829;19;155310;-54
2022/03/11 12:06:55;;;;;;;;;;;;;;;20.50;41.24;100026.34;7286263;19;151720;-54
2022/03/11 12:09:40;;;;;;;;;;;;;;;20.49;41.22;100021.91;7282171;19;153645;-54
2022/03/11 12:12:26;;;;;;;;;;;;;;;20.45;41.00;100016.13;7281719;19;154354;-54
2022/03/11 12:14:59;;;;;;;;;;;;;;;20.44;40.78;100028.53;7282212;19;151878;-53
2022/03/11 12:17:44;;;;;;;;;;;;;;;20.45;41.38;100021.72;7282825;19;154019;-54
2022/03/11 12:20:23;;;;;;;;;;;;;;;20.42;41.00;100012.00;7281948;19;153762;-54
2022/03/11 12:22:52;;;;;;;;;;;;;;;20.41;41.06;100020.75;7280094;19;151859;-54
2022/03/11 12:25:22;;;;;;;;;;;;;;;20.38;41.12;100025.03;7284216;19;152716;-54
2022/03/11 12:27:59;;;;;;;;;;;;;;;20.36;41.04;100021.72;7289700;19;153430;-54
2022/03/11 12:30:27;;;;;;;;;;;;;;;20.36;40.98;100020.91;7281955;19;153087;-54
2022/03/11 12:32:54;;;;;;;;;;;;;;;20.35;41.07;100019.28;7279865;19;153547;-54
2022/03/11 12:35:22;;;;;;;;;;;;;;;20.34;41.41;100020.41;7283883;19;151776;-54
2022/03/11 12:37:49;;;;;;;;;;;;;;;20.33;41.18;100018.75;7282394;19;154271;-54